Orange River — VRMY6 — position and weather

sailwx.info

Track history (hours):
 
Tides and Currents Weather Stations Pressure Air Temp Water Temp Dewpoint Dewpoint Depression Visibility Wind Speed Wind Dir Waves Ship Positions

Orange River

Last reported at 2017-Sep-26 12:00 UTC. Time now 2017-Sep-26 16:26 UTC.
Position N 44°12' W 044°42'.

Length 190 m; draft 11.2 m.

Type: Cargo ship. MMSI: 477133300.

Wind from 350 at 16 knots

Barometer 1018.0 mb
Air temperature 13.0 ° C
Visibility: greater than 10.8 NM
Dewpoint 9.1 ° C
Water temperature 12.0 ° C

Date/timePositionNaut miles runAvg speedWind from/ knotsBaromVisibWave heightAir tempDewpointWater temp
2017-Sep-26 12:00N 44°12' W 044°42'   350 / 161018.010.8 13.0 9.112.0
2017-Sep-21 03:46N 36°48' W 075°39'611.5
2017-Sep-21 03:16N 36°49' W 075°46'411.8
2017-Sep-21 02:58N 36°51' W 075°50'511.1
2017-Sep-21 02:30N 36°54' W 075°55'5 9.9
2017-Sep-21 02:00N 36°57' W 075°60'4 8.0
2017-Sep-21 01:30N 36°58' W 076°05'510.3
2017-Sep-21 01:01N 36°59' W 076°11'510.0
2017-Sep-21 00:29N 37°00' W 076°17'4 8.5
2017-Sep-21 00:01N 36°57' W 076°20'4 8.4
2017-Sep-20 23:31N 36°53' W 076°20'3 5.7
2017-Sep-20 23:01N 36°50' W 076°18'2 3.9
2017-Sep-20 22:31N 36°48' W 076°17'1 1.1
2017-Sep-20 22:01N 36°48' W 076°18'0 0.1
2017-Sep-20 21:29N 36°48' W 076°18'0 0.0
2017-Sep-20 20:56N 36°48' W 076°18'0 0.0
2017-Sep-20 20:29N 36°48' W 076°18'0 0.0
2017-Sep-20 19:59N 36°48' W 076°18'0 0.0
2017-Sep-20 19:29N 36°48' W 076°18'0 0.0
2017-Sep-20 18:59N 36°48' W 076°18'0 0.0
2017-Sep-20 18:29N 36°48' W 076°18'0 0.0
2017-Sep-20 17:59N 36°48' W 076°18'0 0.0
2017-Sep-20 17:29N 36°48' W 076°18'0 0.0
2017-Sep-20 16:59N 36°48' W 076°18'0 0.0
2017-Sep-20 16:29N 36°48' W 076°18'0 0.0
2017-Sep-20 15:59N 36°48' W 076°18'0 0.1
2017-Sep-20 15:29N 36°48' W 076°18'0 0.1
2017-Sep-20 14:59N 36°48' W 076°18'0 0.0
2017-Sep-20 13:59N 36°48' W 076°18'0 0.0
2017-Sep-20 13:29N 36°48' W 076°18'0 0.0
2017-Sep-20 12:59N 36°48' W 076°18'0 0.0
2017-Sep-20 12:29N 36°48' W 076°18'0 0.0
2017-Sep-20 11:59N 36°48' W 076°18'0 0.0
2017-Sep-20 11:29N 36°48' W 076°18'0 0.0
2017-Sep-20 10:59N 36°48' W 076°18'0 0.0
2017-Sep-20 10:29N 36°48' W 076°18'0 0.0
2017-Sep-20 09:59N 36°48' W 076°18'0 0.0
2017-Sep-20 09:29N 36°48' W 076°18'0 0.0
2017-Sep-20 08:59N 36°48' W 076°18'0 0.0
2017-Sep-20 08:29N 36°48' W 076°18'0 0.0
2017-Sep-20 07:59N 36°48' W 076°18'0 0.0
2017-Sep-20 07:29N 36°48' W 076°18'0 0.0
2017-Sep-20 06:59N 36°48' W 076°18'0 0.0
2017-Sep-20 06:29N 36°48' W 076°18'0 0.0
2017-Sep-20 05:59N 36°48' W 076°18'0 0.0
2017-Sep-20 05:29N 36°48' W 076°18'0 0.0
2017-Sep-20 04:59N 36°48' W 076°18'0 0.0
2017-Sep-20 04:29N 36°48' W 076°18'0 0.0
2017-Sep-20 03:59N 36°48' W 076°18'0 0.0
2017-Sep-20 03:29N 36°48' W 076°18'0 0.0
2017-Sep-20 02:59N 36°48' W 076°18'0 0.0
2017-Sep-20 02:29N 36°48' W 076°18'0 0.0
2017-Sep-20 01:59N 36°48' W 076°18'0 0.0
2017-Sep-20 01:29N 36°48' W 076°18'0 0.0
2017-Sep-20 00:59N 36°48' W 076°18'0 0.0
2017-Sep-20 00:29N 36°48' W 076°18'0 0.0
2017-Sep-19 23:59N 36°48' W 076°18'0 0.0
2017-Sep-19 23:29N 36°48' W 076°18'0 0.0
2017-Sep-19 22:59N 36°48' W 076°18'0 0.0
2017-Sep-19 22:29N 36°48' W 076°18'0 0.0
2017-Sep-19 21:56N 36°48' W 076°18'0 0.0
2017-Sep-19 21:29N 36°48' W 076°18'0 0.0
2017-Sep-19 20:59N 36°48' W 076°18'0 0.0
2017-Sep-19 20:29N 36°48' W 076°18'0 0.0
2017-Sep-19 19:59N 36°48' W 076°18'0 0.0
2017-Sep-19 19:29N 36°48' W 076°18'0 0.0
2017-Sep-19 18:59N 36°48' W 076°18'0 0.0
2017-Sep-19 18:29N 36°48' W 076°18'0 0.0
2017-Sep-19 17:59N 36°48' W 076°18'0 0.0
2017-Sep-19 17:29N 36°48' W 076°18'0 0.0
2017-Sep-19 16:59N 36°48' W 076°18'0 0.0
2017-Sep-19 16:29N 36°48' W 076°18'0 0.0
2017-Sep-19 15:59N 36°48' W 076°18'0 0.0
2017-Sep-19 15:29N 36°48' W 076°18'0 0.0
2017-Sep-19 14:59N 36°48' W 076°18'0 0.0
2017-Sep-19 14:29N 36°48' W 076°18'0 0.0
2017-Sep-19 13:59N 36°48' W 076°18'0 0.0
2017-Sep-19 13:29N 36°48' W 076°18'0 0.0
2017-Sep-19 12:59N 36°48' W 076°18'0 0.0
2017-Sep-19 12:29N 36°48' W 076°18'0 0.0
2017-Sep-19 11:59N 36°48' W 076°18'0 0.1
2017-Sep-19 11:29N 36°48' W 076°18'0 0.0
2017-Sep-19 10:59N 36°48' W 076°18'0 0.0
2017-Sep-19 10:29N 36°48' W 076°18'0 0.0
2017-Sep-19 09:59N 36°48' W 076°18'0 0.0
2017-Sep-19 09:29N 36°48' W 076°18'0 0.0
2017-Sep-19 08:59N 36°48' W 076°18'0 0.0
2017-Sep-19 08:29N 36°48' W 076°18'0 0.0
2017-Sep-19 07:59N 36°48' W 076°18'0 0.0
2017-Sep-19 07:29N 36°48' W 076°18'0 0.0
2017-Sep-19 06:59N 36°48' W 076°18'0 0.0
2017-Sep-19 06:29N 36°48' W 076°18'0 0.0
2017-Sep-19 05:59N 36°48' W 076°18'0 0.0
2017-Sep-19 05:29N 36°48' W 076°18'0 0.0
2017-Sep-19 04:59N 36°48' W 076°18'0 0.0
2017-Sep-19 04:29N 36°48' W 076°18'0 0.0
2017-Sep-19 03:59N 36°48' W 076°18'0 0.0
2017-Sep-19 03:29N 36°48' W 076°18'0 0.0
2017-Sep-19 02:59N 36°48' W 076°18'0 0.0
2017-Sep-19 02:29N 36°48' W 076°18'0 0.0
2017-Sep-19 01:59N 36°48' W 076°18'0 0.0
2017-Sep-19 01:29N 36°48' W 076°18'0 0.0
2017-Sep-19 00:59N 36°48' W 076°18'0 0.0
2017-Sep-19 00:29N 36°48' W 076°18'0 0.0
2017-Sep-18 23:59N 36°48' W 076°18'0 0.0
2017-Sep-18 23:29N 36°48' W 076°18'0 0.0
2017-Sep-18 22:59N 36°48' W 076°18'0 0.0
2017-Sep-18 22:29N 36°48' W 076°18'0 0.0
2017-Sep-18 21:59N 36°48' W 076°18'0 0.0
2017-Sep-18 21:29N 36°48' W 076°18'0 0.0
2017-Sep-18 20:59N 36°48' W 076°18'0 0.0
2017-Sep-18 20:29N 36°48' W 076°18'0 0.0
2017-Sep-18 19:59N 36°48' W 076°18'0 0.0
2017-Sep-18 19:29N 36°48' W 076°18'0 0.0
2017-Sep-18 18:59N 36°48' W 076°18'0 0.0
2017-Sep-18 18:29N 36°48' W 076°18'0 0.0
2017-Sep-18 17:59N 36°48' W 076°18'0 0.0
2017-Sep-18 17:29N 36°48' W 076°18'0 0.0
2017-Sep-18 16:59N 36°48' W 076°18'0 0.0
2017-Sep-18 16:29N 36°48' W 076°18'0 0.0
2017-Sep-18 15:59N 36°48' W 076°18'0 0.0
2017-Sep-18 15:29N 36°48' W 076°18'0 0.0
2017-Sep-18 14:59N 36°48' W 076°18'0 0.0
2017-Sep-18 14:29N 36°48' W 076°18'0 0.0
2017-Sep-18 13:59N 36°48' W 076°18'0 0.0
2017-Sep-18 13:29N 36°48' W 076°18'0 0.0
2017-Sep-18 12:59N 36°48' W 076°18'0 0.0
2017-Sep-18 12:26N 36°48' W 076°18'0 0.0
2017-Sep-18 11:59N 36°48' W 076°18'0 0.0
2017-Sep-18 11:29N 36°48' W 076°18'0 0.0
2017-Sep-18 10:59N 36°48' W 076°18'0 0.0
2017-Sep-18 10:29N 36°48' W 076°18'0 0.0
2017-Sep-18 09:56N 36°48' W 076°18'0 0.0
2017-Sep-18 09:29N 36°48' W 076°18'0 0.0
2017-Sep-18 08:59N 36°48' W 076°18'0 0.0
2017-Sep-18 08:29N 36°48' W 076°18'0 0.0
2017-Sep-18 07:59N 36°48' W 076°18'0 0.0
2017-Sep-18 07:29N 36°48' W 076°18'0 0.0
2017-Sep-18 06:59N 36°48' W 076°18'0 0.0
2017-Sep-18 06:29N 36°48' W 076°18'0 0.0
2017-Sep-18 05:59N 36°48' W 076°18'0 0.0
2017-Sep-18 05:29N 36°48' W 076°18'0 0.0
2017-Sep-18 04:59N 36°48' W 076°18'0 0.0
2017-Sep-18 04:29N 36°48' W 076°18'0 0.0
2017-Sep-18 03:59N 36°48' W 076°18'0 0.0
2017-Sep-18 03:29N 36°48' W 076°18'0 0.0
2017-Sep-18 02:59N 36°48' W 076°18'0 0.0
2017-Sep-18 02:29N 36°48' W 076°18'0 0.0
2017-Sep-18 01:59N 36°48' W 076°18'0 0.0
2017-Sep-18 01:29N 36°48' W 076°18'0 0.0
2017-Sep-18 00:59N 36°48' W 076°18'0 0.0
2017-Sep-18 00:29N 36°48' W 076°18'0 0.0
2017-Sep-17 23:56N 36°48' W 076°18'0 0.0
2017-Sep-17 23:29N 36°48' W 076°18'0 0.0
2017-Sep-17 22:59N 36°48' W 076°18'0 0.0
2017-Sep-17 22:29N 36°48' W 076°18'0 0.0
2017-Sep-17 21:59N 36°48' W 076°18'0 0.0
2017-Sep-17 21:29N 36°48' W 076°18'0 0.0
2017-Sep-17 20:56N 36°48' W 076°18'0 0.0
2017-Sep-17 20:29N 36°48' W 076°18'0 0.0
2017-Sep-17 19:59N 36°48' W 076°18'0 0.0
2017-Sep-17 19:29N 36°48' W 076°18'0 0.0
2017-Sep-17 18:59N 36°48' W 076°18'0 0.0
2017-Sep-17 18:29N 36°48' W 076°18'0 0.0
2017-Sep-17 17:56N 36°48' W 076°18'0 0.0
2017-Sep-17 17:29N 36°48' W 076°18'0 0.0
2017-Sep-17 16:59N 36°48' W 076°18'0 0.0
2017-Sep-17 16:29N 36°48' W 076°18'0 0.0
2017-Sep-17 15:59N 36°48' W 076°18'0 0.0
2017-Sep-17 15:29N 36°48' W 076°18'0 0.0
2017-Sep-17 14:59N 36°48' W 076°18'0 0.0
2017-Sep-17 14:29N 36°48' W 076°18'0 0.0
2017-Sep-17 13:59N 36°48' W 076°18'0 0.0
2017-Sep-17 13:29N 36°48' W 076°18'0 0.0
2017-Sep-17 12:59N 36°48' W 076°18'0 0.0
2017-Sep-17 12:29N 36°48' W 076°18'0 0.0
2017-Sep-17 11:59N 36°48' W 076°18'0 0.0
2017-Sep-17 11:29N 36°48' W 076°18'0 0.0
2017-Sep-17 10:59N 36°48' W 076°18'0 0.0
2017-Sep-17 10:29N 36°48' W 076°18'0 0.0
2017-Sep-17 09:59N 36°48' W 076°18'0 0.0
2017-Sep-17 09:29N 36°48' W 076°18'0 0.0
2017-Sep-17 08:59N 36°48' W 076°18'0 0.0
2017-Sep-17 08:29N 36°48' W 076°18'0 0.0
2017-Sep-17 07:59N 36°48' W 076°18'0 0.0
2017-Sep-17 07:29N 36°48' W 076°18'0 0.0
2017-Sep-17 06:59N 36°48' W 076°18'0 0.0
2017-Sep-17 06:29N 36°48' W 076°18'0 0.0
2017-Sep-17 05:59N 36°48' W 076°18'0 0.0
2017-Sep-17 05:29N 36°48' W 076°18'0 0.0
2017-Sep-17 04:59N 36°48' W 076°18'0 0.0
2017-Sep-17 04:29N 36°48' W 076°18'0 0.0
2017-Sep-17 03:59N 36°48' W 076°18'0 0.0
2017-Sep-17 03:29N 36°48' W 076°18'0 0.0
2017-Sep-17 02:59N 36°48' W 076°18'0 0.0
2017-Sep-17 02:29N 36°48' W 076°18'0 0.0
2017-Sep-17 01:59N 36°48' W 076°18'0 0.0
2017-Sep-17 01:29N 36°48' W 076°18'0 0.0
2017-Sep-17 00:59N 36°48' W 076°18'0 0.0
2017-Sep-17 00:29N 36°48' W 076°18'0 0.0
2017-Sep-16 23:59N 36°48' W 076°18'0 0.0
2017-Sep-16 23:29N 36°48' W 076°18'0 0.0
2017-Sep-16 22:59N 36°48' W 076°18'0 0.0
2017-Sep-16 22:29N 36°48' W 076°18'0 0.0
2017-Sep-16 21:59N 36°48' W 076°18'0 0.0
2017-Sep-16 21:29N 36°48' W 076°18'0 0.0
2017-Sep-16 20:59N 36°48' W 076°18'0 0.0
2017-Sep-16 20:26N 36°48' W 076°18'0 0.0
2017-Sep-16 19:59N 36°48' W 076°18'0 0.0
2017-Sep-16 19:29N 36°48' W 076°18'0 0.0
2017-Sep-16 18:59N 36°48' W 076°18'0 0.0
2017-Sep-16 18:29N 36°48' W 076°18'0 0.0
2017-Sep-16 17:59N 36°48' W 076°18'0 0.0
2017-Sep-16 17:29N 36°48' W 076°18'0 0.0
2017-Sep-16 16:59N 36°48' W 076°18'0 0.0
2017-Sep-16 16:29N 36°48' W 076°18'0 0.1
2017-Sep-16 15:59N 36°48' W 076°18'0 0.1
2017-Sep-16 15:29N 36°48' W 076°18'0 0.0
2017-Sep-16 14:59N 36°48' W 076°18'0 0.0
2017-Sep-16 14:29N 36°48' W 076°18'0 0.0
2017-Sep-16 13:59N 36°48' W 076°18'0 0.0
2017-Sep-16 13:29N 36°48' W 076°18'0 0.0
2017-Sep-16 12:59N 36°48' W 076°18'0 0.0
2017-Sep-16 12:29N 36°48' W 076°18'  
Track history (hours):
 
Tides and Currents Weather Stations Pressure Air Temp Water Temp Dewpoint Dewpoint Depression Visibility Wind Speed Wind Dir Waves Ship Positions

Orange River

Last reported at 2017-Sep-26 12:00 UTC. Time now 2017-Sep-26 16:26 UTC.
Position N 44°12' W 044°42'.

Length 190 m; draft 11.2 m.

Type: Cargo ship. MMSI: 477133300.

Wind from 350 at 16 knots

Barometer 1018.0 mb
Air temperature 13.0 ° C
Visibility: greater than 10.8 NM
Dewpoint 9.1 ° C
Water temperature 12.0 ° C

Date/timePositionNaut miles runAvg speedWind from/ knotsBaromVisibWave heightAir tempDewpointWater temp
2017-Sep-26 12:00N 44°12' W 044°42'   350 / 161018.010.8 13.0 9.112.0
2017-Sep-21 03:46N 36°48' W 075°39'611.5
2017-Sep-21 03:16N 36°49' W 075°46'411.8
2017-Sep-21 02:58N 36°51' W 075°50'511.1
2017-Sep-21 02:30N 36°54' W 075°55'5 9.9
2017-Sep-21 02:00N 36°57' W 075°60'4 8.0
2017-Sep-21 01:30N 36°58' W 076°05'510.3
2017-Sep-21 01:01N 36°59' W 076°11'510.0
2017-Sep-21 00:29N 37°00' W 076°17'4 8.5
2017-Sep-21 00:01N 36°57' W 076°20'4 8.4
2017-Sep-20 23:31N 36°53' W 076°20'3 5.7
2017-Sep-20 23:01N 36°50' W 076°18'2 3.9
2017-Sep-20 22:31N 36°48' W 076°17'1 1.1
2017-Sep-20 22:01N 36°48' W 076°18'0 0.1
2017-Sep-20 21:29N 36°48' W 076°18'0 0.0
2017-Sep-20 20:56N 36°48' W 076°18'0 0.0
2017-Sep-20 20:29N 36°48' W 076°18'0 0.0
2017-Sep-20 19:59N 36°48' W 076°18'0 0.0
2017-Sep-20 19:29N 36°48' W 076°18'0 0.0
2017-Sep-20 18:59N 36°48' W 076°18'0 0.0
2017-Sep-20 18:29N 36°48' W 076°18'0 0.0
2017-Sep-20 17:59N 36°48' W 076°18'0 0.0
2017-Sep-20 17:29N 36°48' W 076°18'0 0.0
2017-Sep-20 16:59N 36°48' W 076°18'0 0.0
2017-Sep-20 16:29N 36°48' W 076°18'0 0.0
2017-Sep-20 15:59N 36°48' W 076°18'0 0.1
2017-Sep-20 15:29N 36°48' W 076°18'0 0.1
2017-Sep-20 14:59N 36°48' W 076°18'0 0.0
2017-Sep-20 13:59N 36°48' W 076°18'0 0.0
2017-Sep-20 13:29N 36°48' W 076°18'0 0.0
2017-Sep-20 12:59N 36°48' W 076°18'0 0.0
2017-Sep-20 12:29N 36°48' W 076°18'0 0.0
2017-Sep-20 11:59N 36°48' W 076°18'0 0.0
2017-Sep-20 11:29N 36°48' W 076°18'0 0.0
2017-Sep-20 10:59N 36°48' W 076°18'0 0.0
2017-Sep-20 10:29N 36°48' W 076°18'0 0.0
2017-Sep-20 09:59N 36°48' W 076°18'0 0.0
2017-Sep-20 09:29N 36°48' W 076°18'0 0.0
2017-Sep-20 08:59N 36°48' W 076°18'0 0.0
2017-Sep-20 08:29N 36°48' W 076°18'0 0.0
2017-Sep-20 07:59N 36°48' W 076°18'0 0.0
2017-Sep-20 07:29N 36°48' W 076°18'0 0.0
2017-Sep-20 06:59N 36°48' W 076°18'0 0.0
2017-Sep-20 06:29N 36°48' W 076°18'0 0.0
2017-Sep-20 05:59N 36°48' W 076°18'0 0.0
2017-Sep-20 05:29N 36°48' W 076°18'0 0.0
2017-Sep-20 04:59N 36°48' W 076°18'0 0.0
2017-Sep-20 04:29N 36°48' W 076°18'0 0.0
2017-Sep-20 03:59N 36°48' W 076°18'0 0.0
2017-Sep-20 03:29N 36°48' W 076°18'0 0.0
2017-Sep-20 02:59N 36°48' W 076°18'0 0.0
2017-Sep-20 02:29N 36°48' W 076°18'0 0.0
2017-Sep-20 01:59N 36°48' W 076°18'0 0.0
2017-Sep-20 01:29N 36°48' W 076°18'0 0.0
2017-Sep-20 00:59N 36°48' W 076°18'0 0.0
2017-Sep-20 00:29N 36°48' W 076°18'0 0.0
2017-Sep-19 23:59N 36°48' W 076°18'0 0.0
2017-Sep-19 23:29N 36°48' W 076°18'0 0.0
2017-Sep-19 22:59N 36°48' W 076°18'0 0.0
2017-Sep-19 22:29N 36°48' W 076°18'0 0.0
2017-Sep-19 21:56N 36°48' W 076°18'0 0.0
2017-Sep-19 21:29N 36°48' W 076°18'0 0.0
2017-Sep-19 20:59N 36°48' W 076°18'0 0.0
2017-Sep-19 20:29N 36°48' W 076°18'0 0.0
2017-Sep-19 19:59N 36°48' W 076°18'0 0.0
2017-Sep-19 19:29N 36°48' W 076°18'0 0.0
2017-Sep-19 18:59N 36°48' W 076°18'0 0.0
2017-Sep-19 18:29N 36°48' W 076°18'0 0.0
2017-Sep-19 17:59N 36°48' W 076°18'0 0.0
2017-Sep-19 17:29N 36°48' W 076°18'0 0.0
2017-Sep-19 16:59N 36°48' W 076°18'0 0.0
2017-Sep-19 16:29N 36°48' W 076°18'0 0.0
2017-Sep-19 15:59N 36°48' W 076°18'0 0.0
2017-Sep-19 15:29N 36°48' W 076°18'0 0.0
2017-Sep-19 14:59N 36°48' W 076°18'0 0.0
2017-Sep-19 14:29N 36°48' W 076°18'0 0.0
2017-Sep-19 13:59N 36°48' W 076°18'0 0.0
2017-Sep-19 13:29N 36°48' W 076°18'0 0.0
2017-Sep-19 12:59N 36°48' W 076°18'0 0.0
2017-Sep-19 12:29N 36°48' W 076°18'0 0.0
2017-Sep-19 11:59N 36°48' W 076°18'0 0.1
2017-Sep-19 11:29N 36°48' W 076°18'0 0.0
2017-Sep-19 10:59N 36°48' W 076°18'0 0.0
2017-Sep-19 10:29N 36°48' W 076°18'0 0.0
2017-Sep-19 09:59N 36°48' W 076°18'0 0.0
2017-Sep-19 09:29N 36°48' W 076°18'0 0.0
2017-Sep-19 08:59N 36°48' W 076°18'0 0.0
2017-Sep-19 08:29N 36°48' W 076°18'0 0.0
2017-Sep-19 07:59N 36°48' W 076°18'0 0.0
2017-Sep-19 07:29N 36°48' W 076°18'0 0.0
2017-Sep-19 06:59N 36°48' W 076°18'0 0.0
2017-Sep-19 06:29N 36°48' W 076°18'0 0.0
2017-Sep-19 05:59N 36°48' W 076°18'0 0.0
2017-Sep-19 05:29N 36°48' W 076°18'0 0.0
2017-Sep-19 04:59N 36°48' W 076°18'0 0.0
2017-Sep-19 04:29N 36°48' W 076°18'0 0.0
2017-Sep-19 03:59N 36°48' W 076°18'0 0.0
2017-Sep-19 03:29N 36°48' W 076°18'0 0.0
2017-Sep-19 02:59N 36°48' W 076°18'0 0.0
2017-Sep-19 02:29N 36°48' W 076°18'0 0.0
2017-Sep-19 01:59N 36°48' W 076°18'0 0.0
2017-Sep-19 01:29N 36°48' W 076°18'0 0.0
2017-Sep-19 00:59N 36°48' W 076°18'0 0.0
2017-Sep-19 00:29N 36°48' W 076°18'0 0.0
2017-Sep-18 23:59N 36°48' W 076°18'0 0.0
2017-Sep-18 23:29N 36°48' W 076°18'0 0.0
2017-Sep-18 22:59N 36°48' W 076°18'0 0.0
2017-Sep-18 22:29N 36°48' W 076°18'0 0.0
2017-Sep-18 21:59N 36°48' W 076°18'0 0.0
2017-Sep-18 21:29N 36°48' W 076°18'0 0.0
2017-Sep-18 20:59N 36°48' W 076°18'0 0.0
2017-Sep-18 20:29N 36°48' W 076°18'0 0.0
2017-Sep-18 19:59N 36°48' W 076°18'0 0.0
2017-Sep-18 19:29N 36°48' W 076°18'0 0.0
2017-Sep-18 18:59N 36°48' W 076°18'0 0.0
2017-Sep-18 18:29N 36°48' W 076°18'0 0.0
2017-Sep-18 17:59N 36°48' W 076°18'0 0.0
2017-Sep-18 17:29N 36°48' W 076°18'0 0.0
2017-Sep-18 16:59N 36°48' W 076°18'0 0.0
2017-Sep-18 16:29N 36°48' W 076°18'0 0.0
2017-Sep-18 15:59N 36°48' W 076°18'0 0.0
2017-Sep-18 15:29N 36°48' W 076°18'0 0.0
2017-Sep-18 14:59N 36°48' W 076°18'0 0.0
2017-Sep-18 14:29N 36°48' W 076°18'0 0.0
2017-Sep-18 13:59N 36°48' W 076°18'0 0.0
2017-Sep-18 13:29N 36°48' W 076°18'0 0.0
2017-Sep-18 12:59N 36°48' W 076°18'0 0.0
2017-Sep-18 12:26N 36°48' W 076°18'0 0.0
2017-Sep-18 11:59N 36°48' W 076°18'0 0.0
2017-Sep-18 11:29N 36°48' W 076°18'0 0.0
2017-Sep-18 10:59N 36°48' W 076°18'0 0.0
2017-Sep-18 10:29N 36°48' W 076°18'0 0.0
2017-Sep-18 09:56N 36°48' W 076°18'0 0.0
2017-Sep-18 09:29N 36°48' W 076°18'0 0.0
2017-Sep-18 08:59N 36°48' W 076°18'0 0.0
2017-Sep-18 08:29N 36°48' W 076°18'0 0.0
2017-Sep-18 07:59N 36°48' W 076°18'0 0.0
2017-Sep-18 07:29N 36°48' W 076°18'0 0.0
2017-Sep-18 06:59N 36°48' W 076°18'0 0.0
2017-Sep-18 06:29N 36°48' W 076°18'0 0.0
2017-Sep-18 05:59N 36°48' W 076°18'0 0.0
2017-Sep-18 05:29N 36°48' W 076°18'0 0.0
2017-Sep-18 04:59N 36°48' W 076°18'0 0.0
2017-Sep-18 04:29N 36°48' W 076°18'0 0.0
2017-Sep-18 03:59N 36°48' W 076°18'0 0.0
2017-Sep-18 03:29N 36°48' W 076°18'0 0.0
2017-Sep-18 02:59N 36°48' W 076°18'0 0.0
2017-Sep-18 02:29N 36°48' W 076°18'0 0.0
2017-Sep-18 01:59N 36°48' W 076°18'0 0.0
2017-Sep-18 01:29N 36°48' W 076°18'0 0.0
2017-Sep-18 00:59N 36°48' W 076°18'0 0.0
2017-Sep-18 00:29N 36°48' W 076°18'0 0.0
2017-Sep-17 23:56N 36°48' W 076°18'0 0.0
2017-Sep-17 23:29N 36°48' W 076°18'0 0.0
2017-Sep-17 22:59N 36°48' W 076°18'0 0.0
2017-Sep-17 22:29N 36°48' W 076°18'0 0.0
2017-Sep-17 21:59N 36°48' W 076°18'0 0.0
2017-Sep-17 21:29N 36°48' W 076°18'0 0.0
2017-Sep-17 20:56N 36°48' W 076°18'0 0.0
2017-Sep-17 20:29N 36°48' W 076°18'0 0.0
2017-Sep-17 19:59N 36°48' W 076°18'0 0.0
2017-Sep-17 19:29N 36°48' W 076°18'0 0.0
2017-Sep-17 18:59N 36°48' W 076°18'0 0.0
2017-Sep-17 18:29N 36°48' W 076°18'0 0.0
2017-Sep-17 17:56N 36°48' W 076°18'0 0.0
2017-Sep-17 17:29N 36°48' W 076°18'0 0.0
2017-Sep-17 16:59N 36°48' W 076°18'0 0.0
2017-Sep-17 16:29N 36°48' W 076°18'0 0.0
2017-Sep-17 15:59N 36°48' W 076°18'0 0.0
2017-Sep-17 15:29N 36°48' W 076°18'0 0.0
2017-Sep-17 14:59N 36°48' W 076°18'0 0.0
2017-Sep-17 14:29N 36°48' W 076°18'0 0.0
2017-Sep-17 13:59N 36°48' W 076°18'0 0.0
2017-Sep-17 13:29N 36°48' W 076°18'0 0.0
2017-Sep-17 12:59N 36°48' W 076°18'0 0.0
2017-Sep-17 12:29N 36°48' W 076°18'0 0.0
2017-Sep-17 11:59N 36°48' W 076°18'0 0.0
2017-Sep-17 11:29N 36°48' W 076°18'0 0.0
2017-Sep-17 10:59N 36°48' W 076°18'0 0.0
2017-Sep-17 10:29N 36°48' W 076°18'0 0.0
2017-Sep-17 09:59N 36°48' W 076°18'0 0.0
2017-Sep-17 09:29N 36°48' W 076°18'0 0.0
2017-Sep-17 08:59N 36°48' W 076°18'0 0.0
2017-Sep-17 08:29N 36°48' W 076°18'0 0.0
2017-Sep-17 07:59N 36°48' W 076°18'0 0.0
2017-Sep-17 07:29N 36°48' W 076°18'0 0.0
2017-Sep-17 06:59N 36°48' W 076°18'0 0.0
2017-Sep-17 06:29N 36°48' W 076°18'0 0.0
2017-Sep-17 05:59N 36°48' W 076°18'0 0.0
2017-Sep-17 05:29N 36°48' W 076°18'0 0.0
2017-Sep-17 04:59N 36°48' W 076°18'0 0.0
2017-Sep-17 04:29N 36°48' W 076°18'0 0.0
2017-Sep-17 03:59N 36°48' W 076°18'0 0.0
2017-Sep-17 03:29N 36°48' W 076°18'0 0.0
2017-Sep-17 02:59N 36°48' W 076°18'0 0.0
2017-Sep-17 02:29N 36°48' W 076°18'0 0.0
2017-Sep-17 01:59N 36°48' W 076°18'0 0.0
2017-Sep-17 01:29N 36°48' W 076°18'0 0.0
2017-Sep-17 00:59N 36°48' W 076°18'0 0.0
2017-Sep-17 00:29N 36°48' W 076°18'0 0.0
2017-Sep-16 23:59N 36°48' W 076°18'0 0.0
2017-Sep-16 23:29N 36°48' W 076°18'0 0.0
2017-Sep-16 22:59N 36°48' W 076°18'0 0.0
2017-Sep-16 22:29N 36°48' W 076°18'0 0.0
2017-Sep-16 21:59N 36°48' W 076°18'0 0.0
2017-Sep-16 21:29N 36°48' W 076°18'0 0.0
2017-Sep-16 20:59N 36°48' W 076°18'0 0.0
2017-Sep-16 20:26N 36°48' W 076°18'0 0.0
2017-Sep-16 19:59N 36°48' W 076°18'0 0.0
2017-Sep-16 19:29N 36°48' W 076°18'0 0.0
2017-Sep-16 18:59N 36°48' W 076°18'0 0.0
2017-Sep-16 18:29N 36°48' W 076°18'0 0.0
2017-Sep-16 17:59N 36°48' W 076°18'0 0.0
2017-Sep-16 17:29N 36°48' W 076°18'0 0.0
2017-Sep-16 16:59N 36°48' W 076°18'0 0.0
2017-Sep-16 16:29N 36°48' W 076°18'0 0.1
2017-Sep-16 15:59N 36°48' W 076°18'0 0.1
2017-Sep-16 15:29N 36°48' W 076°18'0 0.0
2017-Sep-16 14:59N 36°48' W 076°18'0 0.0
2017-Sep-16 14:29N 36°48' W 076°18'0 0.0
2017-Sep-16 13:59N 36°48' W 076°18'0 0.0
2017-Sep-16 13:29N 36°48' W 076°18'0 0.0
2017-Sep-16 12:59N 36°48' W 076°18'0 0.0
2017-Sep-16 12:29N 36°48' W 076°18'  

Dump ship's entire track history